sensor_id;sensor_type;location;lat;lon;timestamp;pressure;altitude;pressure_sealevel;temperature;humidity
51876;BME280;34054;52.100;5.116;2023-01-29T00:00:11;102822.31;;;3.27;100.00
51876;BME280;34054;52.100;5.116;2023-01-29T00:00:44;102821.13;;;3.29;100.00
51876;BME280;34054;52.100;5.116;2023-01-29T00:01:16;102818.63;;;3.28;100.00
51876;BME280;34054;52.100;5.116;2023-01-29T00:01:47;102817.63;;;3.37;100.00
51876;BME280;34054;52.100;5.116;2023-01-29T00:02:20;102815.38;;;3.24;100.00
51876;BME280;34054;52.100;5.116;2023-01-29T00:02:52;102815.03;;;3.19;100.00
51876;BME280;34054;52.100;5.116;2023-01-29T00:03:24;102815.34;;;3.16;100.00
51876;BME280;34054;52.100;5.116;2023-01-29T00:03:56;102812.38;;;3.27;100.00
51876;BME280;34054;52.100;5.116;2023-01-29T00:04:29;102810.38;;;3.29;100.00
51876;BME280;34054;52.100;5.116;2023-01-29T00:05:00;102813.06;;;3.29;100.00
51876;BME280;34054;52.100;5.116;2023-01-29T00:05:34;102798.34;;;3.42;100.00
51876;BME280;34054;52.100;5.116;2023-01-29T00:06:08;102797.56;;;3.50;100.00
51876;BME280;34054;52.100;5.116;2023-01-29T00:06:40;102812.50;;;3.52;100.00
51876;BME280;34054;52.100;5.116;2023-01-29T00:07:12;102807.97;;;3.44;100.00
51876;BME280;34054;52.100;5.116;2023-01-29T00:07:45;102817.00;;;3.43;100.00
51876;BME280;34054;52.100;5.116;2023-01-29T00:08:16;102814.97;;;3.45;100.00
51876;BME280;34054;52.100;5.116;2023-01-29T00:08:48;102804.72;;;3.33;100.00
51876;BME280;34054;52.100;5.116;2023-01-29T00:09:21;102808.88;;;3.27;100.00
51876;BME280;34054;52.100;5.116;2023-01-29T00:09:53;102800.44;;;3.22;100.00
51876;BME280;34054;52.100;5.116;2023-01-29T00:10:25;102799.34;;;3.33;100.00
51876;BME280;34054;52.100;5.116;2023-01-29T00:11:00;102803.53;;;3.35;100.00
51876;BME280;34054;52.100;5.116;2023-01-29T00:11:33;102797.00;;;3.38;100.00
51876;BME280;34054;52.100;5.116;2023-01-29T00:12:05;102797.34;;;3.43;100.00
51876;BME280;34054;52.100;5.116;2023-01-29T00:12:39;102790.97;;;3.44;100.00
51876;BME280;34054;52.100;5.116;2023-01-29T00:13:10;102783.41;;;3.39;100.00
51876;BME280;34054;52.100;5.116;2023-01-29T00:13:43;102784.06;;;3.33;100.00
51876;BME280;34054;52.100;5.116;2023-01-29T00:14:16;102790.59;;;3.30;100.00
51876;BME280;34054;52.100;5.116;2023-01-29T00:14:48;102783.09;;;3.42;100.00
51876;BME280;34054;52.100;5.116;2023-01-29T00:15:20;102791.31;;;3.41;100.00
51876;BME280;34054;52.100;5.116;2023-01-29T00:15:52;102777.53;;;3.44;100.00
51876;BME280;34054;52.100;5.116;2023-01-29T00:16:25;102781.94;;;3.53;100.00
51876;BME280;34054;52.100;5.116;2023-01-29T00:16:57;102784.31;;;3.56;100.00
51876;BME280;34054;52.100;5.116;2023-01-29T00:17:29;102784.63;;;3.53;100.00
51876;BME280;34054;52.100;5.116;2023-01-29T00:18:01;102777.56;;;3.52;100.00
51876;BME280;34054;52.100;5.116;2023-01-29T00:18:36;102778.84;;;3.32;100.00
51876;BME280;34054;52.100;5.116;2023-01-29T00:19:10;102774.81;;;3.36;100.00
51876;BME280;34054;52.100;5.116;2023-01-29T00:19:41;102778.41;;;3.44;100.00
51876;BME280;34054;52.100;5.116;2023-01-29T00:20:13;102777.50;;;3.36;100.00
51876;BME280;34054;52.100;5.116;2023-01-29T00:20:46;102780.16;;;3.27;100.00
51876;BME280;34054;52.100;5.116;2023-01-29T00:21:19;102772.47;;;3.33;100.00
51876;BME280;34054;52.100;5.116;2023-01-29T00:21:53;102772.19;;;3.44;100.00
51876;BME280;34054;52.100;5.116;2023-01-29T00:22:24;102773.38;;;3.50;100.00
51876;BME280;34054;52.100;5.116;2023-01-29T00:22:56;102770.00;;;3.48;100.00
51876;BME280;34054;52.100;5.116;2023-01-29T00:23:28;102776.16;;;3.32;100.00
51876;BME280;34054;52.100;5.116;2023-01-29T00:24:00;102767.03;;;3.24;100.00
51876;BME280;34054;52.100;5.116;2023-01-29T00:24:32;102768.69;;;3.17;100.00
51876;BME280;34054;52.100;5.116;2023-01-29T00:25:05;102760.38;;;3.28;100.00
51876;BME280;34054;52.100;5.116;2023-01-29T00:25:38;102769.41;;;3.27;100.00
51876;BME280;34054;52.100;5.116;2023-01-29T00:26:11;102762.34;;;3.26;100.00
51876;BME280;34054;52.100;5.116;2023-01-29T00:26:44;102771.03;;;3.12;100.00
51876;BME280;34054;52.100;5.116;2023-01-29T00:27:16;102773.91;;;3.19;100.00
51876;BME280;34054;52.100;5.116;2023-01-29T00:27:47;102765.09;;;3.35;100.00
51876;BME280;34054;52.100;5.116;2023-01-29T00:28:19;102770.13;;;3.38;100.00
51876;BME280;34054;52.100;5.116;2023-01-29T00:28:52;102771.50;;;3.42;100.00
51876;BME280;34054;52.100;5.116;2023-01-29T00:29:24;102755.47;;;3.24;100.00
51876;BME280;34054;52.100;5.116;2023-01-29T00:29:55;102767.72;;;3.26;100.00
51876;BME280;34054;52.100;5.116;2023-01-29T00:30:41;102768.28;;;3.38;100.00
51876;BME280;34054;52.100;5.116;2023-01-29T00:31:14;102765.81;;;3.45;100.00
51876;BME280;34054;52.100;5.116;2023-01-29T00:31:47;102758.16;;;3.24;100.00
51876;BME280;34054;52.100;5.116;2023-01-29T00:32:20;102772.09;;;3.27;100.00
51876;BME280;34054;52.100;5.116;2023-01-29T00:32:52;102768.91;;;3.24;100.00
51876;BME280;34054;52.100;5.116;2023-01-29T00:33:24;102781.44;;;3.15;100.00
51876;BME280;34054;52.100;5.116;2023-01-29T00:33:56;102772.72;;;3.13;100.00
51876;BME280;34054;52.100;5.116;2023-01-29T00:34:29;102773.72;;;3.12;100.00
51876;BME280;34054;52.100;5.116;2023-01-29T00:35:00;102784.31;;;3.22;100.00
51876;BME280;34054;52.100;5.116;2023-01-29T00:35:32;102779.84;;;3.04;100.00
51876;BME280;34054;52.100;5.116;2023-01-29T00:36:07;102775.34;;;3.05;100.00
51876;BME280;34054;52.100;5.116;2023-01-29T00:36:41;102763.56;;;2.97;100.00
51876;BME280;34054;52.100;5.116;2023-01-29T00:37:14;102779.72;;;3.06;100.00
51876;BME280;34054;52.100;5.116;2023-01-29T00:37:46;102784.44;;;3.12;100.00
51876;BME280;34054;52.100;5.116;2023-01-29T00:38:18;102781.28;;;3.17;100.00
51876;BME280;34054;52.100;5.116;2023-01-29T00:38:53;102775.44;;;3.21;100.00
51876;BME280;34054;52.100;5.116;2023-01-29T00:39:28;102778.13;;;3.21;100.00
51876;BME280;34054;52.100;5.116;2023-01-29T00:40:09;102778.91;;;3.13;100.00
51876;BME280;34054;52.100;5.116;2023-01-29T00:40:42;102778.78;;;3.15;100.00
51876;BME280;34054;52.100;5.116;2023-01-29T00:41:34;102773.88;;;3.10;100.00
51876;BME280;34054;52.100;5.116;2023-01-29T00:42:24;102758.03;;;2.99;100.00
51876;BME280;34054;52.100;5.116;2023-01-29T00:43:14;102776.75;;;3.17;100.00
51876;BME280;34054;52.100;5.116;2023-01-29T00:44:05;102781.50;;;2.97;100.00
51876;BME280;34054;52.100;5.116;2023-01-29T00:44:55;102781.25;;;3.08;100.00
51876;BME280;34054;52.100;5.116;2023-01-29T00:45:27;102773.88;;;3.10;100.00
51876;BME280;34054;52.100;5.116;2023-01-29T00:46:00;102773.66;;;3.04;100.00
51876;BME280;34054;52.100;5.116;2023-01-29T00:46:31;102765.09;;;3.00;100.00
51876;BME280;34054;52.100;5.116;2023-01-29T00:47:04;102770.16;;;3.11;100.00
51876;BME280;34054;52.100;5.116;2023-01-29T00:47:58;102759.94;;;3.07;100.00
51876;BME280;34054;52.100;5.116;2023-01-29T00:48:29;102763.03;;;2.94;100.00
51876;BME280;34054;52.100;5.116;2023-01-29T00:49:01;102754.44;;;2.90;100.00
51876;BME280;34054;52.100;5.116;2023-01-29T00:49:34;102759.44;;;2.85;100.00
51876;BME280;34054;52.100;5.116;2023-01-29T00:50:08;102770.47;;;3.00;100.00
51876;BME280;34054;52.100;5.116;2023-01-29T00:50:42;102760.38;;;2.94;100.00
51876;BME280;34054;52.100;5.116;2023-01-29T00:51:14;102761.25;;;3.03;100.00
51876;BME280;34054;52.100;5.116;2023-01-29T00:51:45;102762.06;;;3.03;100.00
51876;BME280;34054;52.100;5.116;2023-01-29T00:52:38;102761.28;;;3.11;100.00
51876;BME280;34054;52.100;5.116;2023-01-29T00:53:11;102760.59;;;3.09;100.00
51876;BME280;34054;52.100;5.116;2023-01-29T00:53:42;102759.88;;;2.98;100.00
51876;BME280;34054;52.100;5.116;2023-01-29T00:54:15;102762.97;;;3.12;100.00
51876;BME280;34054;52.100;5.116;2023-01-29T00:54:47;102754.41;;;3.08;100.00
51876;BME280;34054;52.100;5.116;2023-01-29T00:55:18;102760.94;;;3.06;100.00
51876;BME280;34054;52.100;5.116;2023-01-29T00:55:51;102764.09;;;3.01;100.00
51876;BME280;34054;52.100;5.116;2023-01-29T00:56:23;102758.50;;;2.94;100.00
51876;BME280;34054;52.100;5.116;2023-01-29T00:56:56;102758.03;;;2.99;100.00
51876;BME280;34054;52.100;5.116;2023-01-29T00:57:30;102750.66;;;3.01;100.00
51876;BME280;34054;52.100;5.116;2023-01-29T00:58:03;102764.28;;;3.08;100.00
51876;BME280;34054;52.100;5.116;2023-01-29T00:58:35;102754.06;;;3.11;100.00
51876;BME280;34054;52.100;5.116;2023-01-29T00:59:07;102753.53;;;3.08;100.00
51876;BME280;34054;52.100;5.116;2023-01-29T00:59:38;102756.69;;;3.03;100.00
51876;BME280;34054;52.100;5.116;2023-01-29T01:00:12;102758.56;;;3.03;100.00
51876;BME280;34054;52.100;5.116;2023-01-29T01:00:47;102749.50;;;3.04;100.00
51876;BME280;34054;52.100;5.116;2023-01-29T01:01:19;102752.19;;;3.04;100.00
51876;BME280;34054;52.100;5.116;2023-01-29T01:02:12;102756.22;;;3.08;100.00
51876;BME280;34054;52.100;5.116;2023-01-29T01:03:03;102750.94;;;3.24;100.00
51876;BME280;34054;52.100;5.116;2023-01-29T01:03:37;102751.81;;;3.33;100.00
51876;BME280;34054;52.100;5.116;2023-01-29T01:04:17;102744.91;;;3.22;100.00
51876;BME280;34054;52.100;5.116;2023-01-29T01:04:48;102745.72;;;3.23;100.00
51876;BME280;34054;52.100;5.116;2023-01-29T01:05:20;102737.50;;;3.24;100.00
51876;BME280;34054;52.100;5.116;2023-01-29T01:06:02;102744.06;;;3.30;100.00
51876;BME280;34054;52.100;5.116;2023-01-29T01:06:36;102737.19;;;3.27;100.00
51876;BME280;34054;52.100;5.116;2023-01-29T01:07:07;102743.41;;;3.28;100.00
51876;BME280;34054;52.100;5.116;2023-01-29T01:07:40;102741.88;;;3.25;100.00
51876;BME280;34054;52.100;5.116;2023-01-29T01:08:12;102744.59;;;3.34;100.00
51876;BME280;34054;52.100;5.116;2023-01-29T01:09:02;102744.59;;;3.34;100.00
51876;BME280;34054;52.100;5.116;2023-01-29T01:09:53;102732.84;;;3.35;100.00
51876;BME280;34054;52.100;5.116;2023-01-29T01:10:43;102733.22;;;3.40;100.00
51876;BME280;34054;52.100;5.116;2023-01-29T01:11:16;102734.56;;;3.44;100.00
51876;BME280;34054;52.100;5.116;2023-01-29T01:11:48;102731.22;;;3.50;100.00
51876;BME280;34054;52.100;5.116;2023-01-29T01:12:21;102732.63;;;3.63;100.00
51876;BME280;34054;52.100;5.116;2023-01-29T01:12:55;102724.41;;;3.72;100.00
51876;BME280;34054;52.100;5.116;2023-01-29T01:13:30;102723.91;;;3.77;100.00
51876;BME280;34054;52.100;5.116;2023-01-29T01:14:02;102728.63;;;3.75;100.00
51876;BME280;34054;52.100;5.116;2023-01-29T01:14:34;102725.25;;;3.73;100.00
51876;BME280;34054;52.100;5.116;2023-01-29T01:15:06;102730.97;;;3.78;100.00
51876;BME280;34054;52.100;5.116;2023-01-29T01:15:40;102728.44;;;3.76;100.00
51876;BME280;34054;52.100;5.116;2023-01-29T01:16:13;102732.47;;;3.81;100.00
51876;BME280;34054;52.100;5.116;2023-01-29T01:16:48;102732.94;;;3.68;100.00
51876;BME280;34054;52.100;5.116;2023-01-29T01:17:20;102729.63;;;3.66;100.00
51876;BME280;34054;52.100;5.116;2023-01-29T01:17:53;102730.63;;;3.65;100.00
51876;BME280;34054;52.100;5.116;2023-01-29T01:18:28;102734.28;;;3.55;100.00
51876;BME280;34054;52.100;5.116;2023-01-29T01:19:01;102731.56;;;3.47;100.00
51876;BME280;34054;52.100;5.116;2023-01-29T01:19:33;102737.75;;;3.39;100.00
51876;BME280;34054;52.100;5.116;2023-01-29T01:20:09;102729.03;;;3.45;100.00
51876;BME280;34054;52.100;5.116;2023-01-29T01:20:41;102731.41;;;3.57;100.00
51876;BME280;34054;52.100;5.116;2023-01-29T01:21:13;102730.25;;;3.68;100.00
51876;BME280;34054;52.100;5.116;2023-01-29T01:21:46;102738.84;;;3.71;100.00
51876;BME280;34054;52.100;5.116;2023-01-29T01:22:18;102738.69;;;3.65;100.00
51876;BME280;34054;52.100;5.116;2023-01-29T01:22:50;102732.78;;;3.61;100.00
51876;BME280;34054;52.100;5.116;2023-01-29T01:23:24;102734.59;;;3.52;100.00
51876;BME280;34054;52.100;5.116;2023-01-29T01:23:56;102738.97;;;3.53;100.00
51876;BME280;34054;52.100;5.116;2023-01-29T01:24:28;102741.69;;;3.61;100.00
51876;BME280;34054;52.100;5.116;2023-01-29T01:25:00;102745.38;;;3.60;100.00
51876;BME280;34054;52.100;5.116;2023-01-29T01:25:32;102751.25;;;3.64;100.00
51876;BME280;34054;52.100;5.116;2023-01-29T01:26:07;102730.25;;;3.68;100.00
51876;BME280;34054;52.100;5.116;2023-01-29T01:26:41;102750.44;;;3.72;100.00
51876;BME280;34054;52.100;5.116;2023-01-29T01:27:13;102745.06;;;3.72;100.00
51876;BME280;34054;52.100;5.116;2023-01-29T01:27:46;102739.69;;;3.72;100.00
51876;BME280;34054;52.100;5.116;2023-01-29T01:28:18;102734.84;;;3.75;100.00
51876;BME280;34054;52.100;5.116;2023-01-29T01:28:50;102742.06;;;3.75;100.00
51876;BME280;34054;52.100;5.116;2023-01-29T01:29:22;102751.44;;;3.63;100.00
51876;BME280;34054;52.100;5.116;2023-01-29T01:29:54;102749.44;;;3.65;100.00
51876;BME280;34054;52.100;5.116;2023-01-29T01:30:26;102746.88;;;3.63;100.00
51876;BME280;34054;52.100;5.116;2023-01-29T01:31:07;102744.81;;;3.49;100.00
51876;BME280;34054;52.100;5.116;2023-01-29T01:31:40;102750.91;;;3.59;100.00
51876;BME280;34054;52.100;5.116;2023-01-29T01:32:12;102745.72;;;3.57;100.00
51876;BME280;34054;52.100;5.116;2023-01-29T01:32:44;102755.13;;;3.70;100.00
51876;BME280;34054;52.100;5.116;2023-01-29T01:33:17;102757.16;;;3.76;100.00
51876;BME280;34054;52.100;5.116;2023-01-29T01:33:48;102761.66;;;3.59;100.00
51876;BME280;34054;52.100;5.116;2023-01-29T01:34:21;102762.16;;;3.63;100.00
51876;BME280;34054;52.100;5.116;2023-01-29T01:34:54;102762.16;;;3.54;100.00
51876;BME280;34054;52.100;5.116;2023-01-29T01:35:25;102758.81;;;3.60;100.00
51876;BME280;34054;52.100;5.116;2023-01-29T01:36:00;102757.13;;;3.68;100.00
51876;BME280;34054;52.100;5.116;2023-01-29T01:36:32;102762.88;;;3.73;100.00
51876;BME280;34054;52.100;5.116;2023-01-29T01:37:04;102759.69;;;3.69;100.00
51876;BME280;34054;52.100;5.116;2023-01-29T01:37:36;102760.50;;;3.70;100.00
51876;BME280;34054;52.100;5.116;2023-01-29T01:38:09;102767.09;;;3.75;100.00
51876;BME280;34054;52.100;5.116;2023-01-29T01:38:41;102762.72;;;3.74;100.00
51876;BME280;34054;52.100;5.116;2023-01-29T01:39:14;102766.56;;;3.72;100.00
51876;BME280;34054;52.100;5.116;2023-01-29T01:39:47;102764.19;;;3.60;100.00
51876;BME280;34054;52.100;5.116;2023-01-29T01:40:20;102767.34;;;3.56;100.00
51876;BME280;34054;52.100;5.116;2023-01-29T01:40:52;102764.03;;;3.62;100.00
51876;BME280;34054;52.100;5.116;2023-01-29T01:41:25;102763.19;;;3.70;100.00
51876;BME280;34054;52.100;5.116;2023-01-29T01:41:57;102756.28;;;3.59;100.00
51876;BME280;34054;52.100;5.116;2023-01-29T01:42:28;102760.50;;;3.61;100.00
51876;BME280;34054;52.100;5.116;2023-01-29T01:43:01;102754.78;;;3.65;100.00
51876;BME280;34054;52.100;5.116;2023-01-29T01:43:52;102760.50;;;3.70;100.00
51876;BME280;34054;52.100;5.116;2023-01-29T01:44:48;102759.50;;;3.71;100.00
51876;BME280;34054;52.100;5.116;2023-01-29T01:45:26;102761.50;;;3.69;100.00
51876;BME280;34054;52.100;5.116;2023-01-29T01:45:59;102765.53;;;3.65;100.00
51876;BME280;34054;52.100;5.116;2023-01-29T01:46:33;102756.97;;;3.61;100.00
51876;BME280;34054;52.100;5.116;2023-01-29T01:47:06;102758.69;;;3.70;100.00
51876;BME280;34054;52.100;5.116;2023-01-29T01:47:41;102762.19;;;3.71;100.00
51876;BME280;34054;52.100;5.116;2023-01-29T01:48:20;102751.44;;;3.71;100.00
51876;BME280;34054;52.100;5.116;2023-01-29T01:48:56;102762.88;;;3.73;100.00
51876;BME280;34054;52.100;5.116;2023-01-29T01:49:32;102758.19;;;3.75;100.00
51876;BME280;34054;52.100;5.116;2023-01-29T01:50:07;102761.38;;;3.79;100.00
51876;BME280;34054;52.100;5.116;2023-01-29T01:50:46;102758.31;;;3.65;100.00
51876;BME280;34054;52.100;5.116;2023-01-29T01:51:23;102763.69;;;3.65;100.00
51876;BME280;34054;52.100;5.116;2023-01-29T01:51:57;102745.84;;;3.56;100.00
51876;BME280;34054;52.100;5.116;2023-01-29T01:52:31;102759.69;;;3.69;100.00
51876;BME280;34054;52.100;5.116;2023-01-29T01:53:06;102754.59;;;3.58;100.00
51876;BME280;34054;52.100;5.116;2023-01-29T01:53:44;102759.63;;;3.53;100.00
51876;BME280;34054;52.100;5.116;2023-01-29T01:54:24;102753.78;;;3.57;100.00
51876;BME280;34054;52.100;5.116;2023-01-29T01:55:00;102745.38;;;3.60;100.00
51876;BME280;34054;52.100;5.116;2023-01-29T01:55:37;102751.09;;;3.66;100.00
51876;BME280;34054;52.100;5.116;2023-01-29T01:56:17;102755.78;;;3.55;100.00
51876;BME280;34054;52.100;5.116;2023-01-29T01:56:58;102763.84;;;3.64;100.00
51876;BME280;34054;52.100;5.116;2023-01-29T01:57:40;102764.88;;;3.71;100.00
51876;BME280;34054;52.100;5.116;2023-01-29T01:58:23;102765.06;;;3.69;100.00
51876;BME280;34054;52.100;5.116;2023-01-29T01:58:58;102762.50;;;3.59;100.00
51876;BME280;34054;52.100;5.116;2023-01-29T01:59:31;102752.69;;;3.42;100.00
51876;BME280;34054;52.100;5.116;2023-01-29T02:00:07;102754.88;;;3.46;100.00
51876;BME280;34054;52.100;5.116;2023-01-29T02:00:42;102757.56;;;3.46;100.00
51876;BME280;34054;52.100;5.116;2023-01-29T02:01:14;102760.22;;;3.38;100.00
51876;BME280;34054;52.100;5.116;2023-01-29T02:01:50;102759.09;;;3.41;100.00
51876;BME280;34054;52.100;5.116;2023-01-29T02:02:24;102758.75;;;3.44;100.00
51876;BME280;34054;52.100;5.116;2023-01-29T02:03:16;102758.41;;;3.39;100.00
51876;BME280;34054;52.100;5.116;2023-01-29T02:04:13;102757.44;;;3.48;100.00
51876;BME280;34054;52.100;5.116;2023-01-29T02:05:07;102756.22;;;3.42;100.00
51876;BME280;34054;52.100;5.116;2023-01-29T02:06:00;102766.31;;;3.49;100.00
51876;BME280;34054;52.100;5.116;2023-01-29T02:06:51;102757.75;;;3.45;100.00
51876;BME280;34054;52.100;5.116;2023-01-29T02:07:44;102756.03;;;3.36;100.00
51876;BME280;34054;52.100;5.116;2023-01-29T02:08:43;102762.44;;;3.43;100.00
51876;BME280;34054;52.100;5.116;2023-01-29T02:09:41;102751.69;;;3.43;100.00
51876;BME280;34054;52.100;5.116;2023-01-29T02:10:21;102760.72;;;3.34;100.00
51876;BME280;34054;52.100;5.116;2023-01-29T02:10:54;102766.59;;;3.37;100.00
51876;BME280;34054;52.100;5.116;2023-01-29T02:11:26;102761.44;;;3.44;100.00
51876;BME280;34054;52.100;5.116;2023-01-29T02:11:59;102755.06;;;3.45;100.00
51876;BME280;34054;52.100;5.116;2023-01-29T02:12:31;102764.47;;;3.41;100.00
51876;BME280;34054;52.100;5.116;2023-01-29T02:13:04;102766.13;;;3.42;100.00
51876;BME280;34054;52.100;5.116;2023-01-29T02:13:39;102763.72;;;3.30;100.00
51876;BME280;34054;52.100;5.116;2023-01-29T02:14:12;102768.59;;;3.27;100.00
51876;BME280;34054;52.100;5.116;2023-01-29T02:14:44;102760.22;;;3.38;100.00
51876;BME280;34054;52.100;5.116;2023-01-29T02:15:16;102760.75;;;3.42;100.00
51876;BME280;34054;52.100;5.116;2023-01-29T02:15:48;102762.56;;;3.33;100.00
51876;BME280;34054;52.100;5.116;2023-01-29T02:16:21;102760.72;;;3.34;100.00
51876;BME280;34054;52.100;5.116;2023-01-29T02:16:53;102750.31;;;3.30;100.00
51876;BME280;34054;52.100;5.116;2023-01-29T02:17:26;102753.50;;;3.34;100.00
51876;BME280;34054;52.100;5.116;2023-01-29T02:17:57;102748.66;;;3.38;100.00
51876;BME280;34054;52.100;5.116;2023-01-29T02:18:29;102747.66;;;3.39;100.00
51876;BME280;34054;52.100;5.116;2023-01-29T02:19:13;102754.53;;;3.41;100.00
51876;BME280;34054;52.100;5.116;2023-01-29T02:20:01;102754.88;;;3.46;100.00
51876;BME280;34054;52.100;5.116;2023-01-29T02:20:48;102743.03;;;3.57;100.00
51876;BME280;34054;52.100;5.116;2023-01-29T02:22:11;102748.38;;;3.49;100.00
51876;BME280;34054;52.100;5.116;2023-01-29T02:24:56;102751.63;;;3.26;100.00
51876;BME280;34054;52.100;5.116;2023-01-29T02:27:02;102744.47;;;3.43;100.00
51876;BME280;34054;52.100;5.116;2023-01-29T02:28:19;102743.63;;;3.43;100.00
51876;BME280;34054;52.100;5.116;2023-01-29T02:29:04;102744.97;;;3.39;100.00
51876;BME280;34054;52.100;5.116;2023-01-29T02:29:59;102754.19;;;3.36;100.00
51876;BME280;34054;52.100;5.116;2023-01-29T02:30:39;102746.13;;;3.36;100.00
51876;BME280;34054;52.100;5.116;2023-01-29T02:31:23;102750.19;;;3.49;100.00
51876;BME280;34054;52.100;5.116;2023-01-29T02:32:11;102753.25;;;3.54;100.00
51876;BME280;34054;52.100;5.116;2023-01-29T02:32:52;102752.56;;;3.52;100.00
51876;BME280;34054;52.100;5.116;2023-01-29T02:33:43;102755.56;;;3.49;100.00
51876;BME280;34054;52.100;5.116;2023-01-29T02:34:30;102748.34;;;3.41;100.00
51876;BME280;34054;52.100;5.116;2023-01-29T02:35:33;102759.44;;;3.46;100.00
51876;BME280;34054;52.100;5.116;2023-01-29T02:36:18;102760.13;;;3.48;100.00
51876;BME280;34054;52.100;5.116;2023-01-29T02:37:03;102744.59;;;3.34;100.00
51876;BME280;34054;52.100;5.116;2023-01-29T02:37:45;102768.25;;;3.30;100.00
51876;BME280;34054;52.100;5.116;2023-01-29T02:38:29;102760.75;;;3.42;100.00
51876;BME280;34054;52.100;5.116;2023-01-29T02:39:15;102766.78;;;3.36;100.00
51876;BME280;34054;52.100;5.116;2023-01-29T02:39:59;102768.91;;;3.24;100.00
51876;BME280;34054;52.100;5.116;2023-01-29T02:40:41;102762.31;;;3.18;100.00
51876;BME280;34054;52.100;5.116;2023-01-29T02:41:23;102765.09;;;3.35;100.00
51876;BME280;34054;52.100;5.116;2023-01-29T02:42:05;102756.38;;;3.33;100.00
51876;BME280;34054;52.100;5.116;2023-01-29T02:42:51;102761.78;;;3.41;100.00
51876;BME280;34054;52.100;5.116;2023-01-29T02:43:32;102758.75;;;3.44;100.00
51876;BME280;34054;52.100;5.116;2023-01-29T02:44:23;102757.78;;;3.53;100.00
51876;BME280;34054;52.100;5.116;2023-01-29T02:45:09;102770.13;;;3.38;100.00
51876;BME280;34054;52.100;5.116;2023-01-29T02:45:49;102759.09;;;3.41;100.00
51876;BME280;34054;52.100;5.116;2023-01-29T02:46:34;102761.09;;;3.39;100.00
51876;BME280;34054;52.100;5.116;2023-01-29T02:47:14;102757.56;;;3.46;100.00
51876;BME280;34054;52.100;5.116;2023-01-29T02:47:56;102755.94;;;3.54;100.00
51876;BME280;34054;52.100;5.116;2023-01-29T02:48:38;102755.94;;;3.54;100.00
51876;BME280;34054;52.100;5.116;2023-01-29T02:49:19;102756.94;;;3.53;100.00
51876;BME280;34054;52.100;5.116;2023-01-29T02:50:02;102749.13;;;3.33;100.00
51876;BME280;34054;52.100;5.116;2023-01-29T02:50:44;102757.44;;;3.48;100.00
51876;BME280;34054;52.100;5.116;2023-01-29T02:51:25;102759.19;;;3.31;100.00
51876;BME280;34054;52.100;5.116;2023-01-29T02:52:09;102759.38;;;3.29;100.00
51876;BME280;34054;52.100;5.116;2023-01-29T02:52:53;102759.56;;;3.36;100.00
51876;BME280;34054;52.100;5.116;2023-01-29T02:53:35;102756.56;;;3.48;100.00
51876;BME280;34054;52.100;5.116;2023-01-29T02:54:16;102761.41;;;3.36;100.00
51876;BME280;34054;52.100;5.116;2023-01-29T02:54:58;102761.25;;;3.45;100.00
51876;BME280;34054;52.100;5.116;2023-01-29T02:55:42;102762.47;;;3.51;100.00
51876;BME280;34054;52.100;5.116;2023-01-29T02:56:23;102750.03;;;3.50;100.00
51876;BME280;34054;52.100;5.116;2023-01-29T02:57:03;102766.28;;;3.40;100.00
51876;BME280;34054;52.100;5.116;2023-01-29T02:57:43;102761.09;;;3.39;100.00
51876;BME280;34054;52.100;5.116;2023-01-29T02:58:25;102765.47;;;3.40;100.00
51876;BME280;34054;52.100;5.116;2023-01-29T02:59:06;102756.53;;;3.39;100.00
51876;BME280;34054;52.100;5.116;2023-01-29T02:59:45;102760.44;;;3.45;100.00
51876;BME280;34054;52.100;5.116;2023-01-29T03:00:22;102758.91;;;3.42;100.00
51876;BME280;34054;52.100;5.116;2023-01-29T03:01:01;102764.78;;;3.38;100.00
51876;BME280;34054;52.100;5.116;2023-01-29T03:01:43;102752.50;;;3.35;100.00
51876;BME280;34054;52.100;5.116;2023-01-29T03:02:24;102762.41;;;3.35;100.00
51876;BME280;34054;52.100;5.116;2023-01-29T03:03:07;102747.78;;;3.37;100.00
51876;BME280;34054;52.100;5.116;2023-01-29T03:03:47;102760.94;;;3.49;100.00
51876;BME280;34054;52.100;5.116;2023-01-29T03:04:28;102757.91;;;3.43;100.00
51876;BME280;34054;52.100;5.116;2023-01-29T03:05:09;102753.25;;;3.54;100.00
51876;BME280;34054;52.100;5.116;2023-01-29T03:05:50;102756.78;;;3.54;100.00
51876;BME280;34054;52.100;5.116;2023-01-29T03:06:34;102750.50;;;3.45;100.00
51876;BME280;34054;52.100;5.116;2023-01-29T03:07:15;102750.72;;;3.52;100.00
51876;BME280;34054;52.100;5.116;2023-01-29T03:08:14;102752.06;;;3.48;100.00
51876;BME280;34054;52.100;5.116;2023-01-29T03:08:52;102754.75;;;3.48;100.00
51876;BME280;34054;52.100;5.116;2023-01-29T03:09:33;102752.56;;;3.52;100.00
51876;BME280;34054;52.100;5.116;2023-01-29T03:10:12;102749.41;;;3.56;100.00
51876;BME280;34054;52.100;5.116;2023-01-29T03:10:53;102752.72;;;3.50;100.00
51876;BME280;34054;52.100;5.116;2023-01-29T03:11:34;102750.75;;;3.60;100.00
51876;BME280;34054;52.100;5.116;2023-01-29T03:12:12;102749.44;;;3.65;100.00
51876;BME280;34054;52.100;5.116;2023-01-29T03:13:06;102748.22;;;3.59;100.00
51876;BME280;34054;52.100;5.116;2023-01-29T03:13:50;102748.66;;;3.38;100.00
51876;BME280;34054;52.100;5.116;2023-01-29T03:14:33;102730.53;;;3.40;100.00
51876;BME280;34054;52.100;5.116;2023-01-29T03:15:27;102744.47;;;3.43;100.00
51876;BME280;34054;52.100;5.116;2023-01-29T03:16:13;102732.03;;;3.34;100.00
51876;BME280;34054;52.100;5.116;2023-01-29T03:16:52;102721.56;;;3.23;100.00
51876;BME280;34054;52.100;5.116;2023-01-29T03:17:32;102732.34;;;3.31;100.00
51876;BME280;34054;52.100;5.116;2023-01-29T03:18:15;102729.66;;;3.31;100.00
51876;BME280;34054;52.100;5.116;2023-01-29T03:18:53;102735.25;;;3.46;100.00